Notre-Dame-de-la-Salette, Canada
Current Conditions -  °F | °C
As of 4:00 PM on Wednesday 26 Nov 2014 (Local Time) from CYND Reporting Station
Broken Clouds Broken Clouds  
Wind Chill: 24°   Ceiling: 10000
Heat Index: 30°   Visibility: 15mi
Dew Point: 19°   Wind: 6mph
Humidity: 64%   Direction: 20°NNE
Pressure: 30.19"   Gusts: NA
Location:  45.76°N, 75.58°W
Report Text: CYND 262100Z 02005KT 15SM FEW040 BKN100 M01/M07 A3019 RMK SC1AC6 SLP225
Loading
Personal Weather Stations






























Interactive Weather Map New forecast layout! Learn more

10-Day Weather Forecast

Advertisements
Track Severe Weather on mobile